Time;durP1;ratioP1;P1;durP2;ratioP2;P2;SDS_P1;SDS_P2;PMS_P1;PMS_P2;Temp;Humidity;BMP_temperature;BMP_pressure;BME280_temperature;BME280_humidity;BME280_pressure;Samples;Min_cycle;Max_cycle;Signal;HPM_P1;HPM_P2
2021/08/04 00:00:55;;;;;;;4.03;1.30;;;;;;;;;;5077260;28;20635;-73
2021/08/04 00:03:23;;;;;;;2.60;1.67;;;;;;;;;;5078020;28;20736;-72
2021/08/04 00:05:51;;;;;;;2.73;1.60;;;;;;;;;;5077814;28;20449;-72
2021/08/04 00:08:19;;;;;;;2.40;1.60;;;;;;;;;;5077607;28;20464;-72
2021/08/04 00:10:47;;;;;;;2.43;1.40;;;;;;;;;;5077400;28;20534;-72
2021/08/04 00:13:15;;;;;;;2.33;1.00;;;;;;;;;;5077635;28;20724;-72
2021/08/04 00:15:44;;;;;;;2.90;1.27;;;;;;;;;;5077487;28;21016;-72
2021/08/04 00:18:12;;;;;;;2.47;1.20;;;;;;;;;;5076973;28;20461;-72
2021/08/04 00:20:40;;;;;;;2.00;1.43;;;;;;;;;;5076880;28;20476;-72
2021/08/04 00:23:08;;;;;;;2.73;1.30;;;;;;;;;;5077447;28;20461;-72
2021/08/04 00:25:37;;;;;;;3.83;1.90;;;;;;;;;;5077412;28;20445;-71
2021/08/04 00:28:04;;;;;;;3.17;1.10;;;;;;;;;;5077439;28;20584;-72
2021/08/04 00:30:32;;;;;;;4.33;1.53;;;;;;;;;;5074149;28;20441;-71
2021/08/04 00:33:02;;;;;;;5.20;1.50;;;;;;;;;;5077364;28;20833;-72
2021/08/04 00:35:30;;;;;;;4.20;1.43;;;;;;;;;;5077060;28;20453;-72
2021/08/04 00:37:58;;;;;;;3.40;1.40;;;;;;;;;;5077154;28;20456;-72
2021/08/04 00:40:25;;;;;;;2.40;1.33;;;;;;;;;;5076913;28;20795;-72
2021/08/04 00:42:53;;;;;;;2.67;1.23;;;;;;;;;;5077101;28;20523;-72
2021/08/04 00:45:21;;;;;;;2.67;1.27;;;;;;;;;;5077061;28;20452;-71
2021/08/04 00:47:49;;;;;;;2.80;1.20;;;;;;;;;;5076924;28;20859;-72
2021/08/04 00:50:18;;;;;;;2.07;1.17;;;;;;;;;;5076971;28;20449;-72
2021/08/04 00:52:46;;;;;;;6.23;1.30;;;;;;;;;;5076884;28;20496;-72
2021/08/04 00:55:17;;;;;;;7.10;1.47;;;;;;;;;;5076844;28;20866;-71
2021/08/04 00:57:46;;;;;;;2.50;1.30;;;;;;;;;;5077019;28;20542;-72
2021/08/04 01:00:14;;;;;;;4.63;1.60;;;;;;;;;;5077390;28;20504;-71
2021/08/04 01:02:42;;;;;;;1.90;1.10;;;;;;;;;;5076812;28;20538;-72
2021/08/04 01:05:13;;;;;;;2.80;1.40;;;;;;;;;;5077037;28;20518;-72
2021/08/04 01:07:44;;;;;;;1.80;1.10;;;;;;;;;;5076769;28;20529;-72
2021/08/04 01:10:13;;;;;;;2.80;1.30;;;;;;;;;;5076368;28;20944;-72
2021/08/04 01:12:44;;;;;;;2.70;1.60;;;;;;;;;;5076181;28;20452;-72
2021/08/04 01:15:12;;;;;;;2.27;1.20;;;;;;;;;;5076274;28;20488;-70
2021/08/04 01:17:40;;;;;;;2.30;1.53;;;;;;;;;;5076296;28;20452;-72
2021/08/04 01:20:12;;;;;;;2.10;1.20;;;;;;;;;;5076515;28;20515;-72
2021/08/04 01:22:43;;;;;;;5.40;1.47;;;;;;;;;;5076616;28;20484;-73
2021/08/04 01:25:15;;;;;;;2.90;1.20;;;;;;;;;;5076673;28;20832;-72
2021/08/04 01:27:46;;;;;;;2.20;1.10;;;;;;;;;;5076144;28;20737;-72
2021/08/04 01:30:14;;;;;;;4.47;1.80;;;;;;;;;;5076661;28;20839;-72
2021/08/04 01:32:42;;;;;;;3.47;1.47;;;;;;;;;;5076700;28;20856;-72
2021/08/04 01:35:11;;;;;;;2.50;1.13;;;;;;;;;;5076782;28;20487;-72
2021/08/04 01:37:40;;;;;;;1.90;1.10;;;;;;;;;;5077543;28;20461;-72
2021/08/04 01:40:11;;;;;;;2.00;1.13;;;;;;;;;;5077297;28;20452;-72
2021/08/04 01:42:40;;;;;;;2.37;1.00;;;;;;;;;;5076380;28;20507;-72
2021/08/04 01:45:12;;;;;;;3.30;1.17;;;;;;;;;;5076475;28;20462;-72
2021/08/04 01:47:41;;;;;;;2.60;1.33;;;;;;;;;;5076555;28;20461;-72
2021/08/04 01:50:09;;;;;;;2.17;1.30;;;;;;;;;;5076089;28;20700;-73
2021/08/04 01:52:38;;;;;;;4.33;1.53;;;;;;;;;;5076435;28;20457;-72
2021/08/04 01:55:07;;;;;;;4.90;1.70;;;;;;;;;;5076011;28;20444;-72
2021/08/04 01:57:35;;;;;;;2.70;1.47;;;;;;;;;;5076104;28;20472;-72
2021/08/04 02:00:04;;;;;;;2.70;1.30;;;;;;;;;;5076386;28;20452;-72
2021/08/04 02:02:33;;;;;;;2.60;1.40;;;;;;;;;;5076284;28;20495;-72
2021/08/04 02:05:01;;;;;;;2.50;1.30;;;;;;;;;;5080812;28;20493;-71
2021/08/04 02:07:38;;;;;;;2.57;2.07;;;;;;;;;;5081372;28;20522;-72
2021/08/04 02:10:08;;;;;;;2.23;1.53;;;;;;;;;;5079889;28;20448;-72
2021/08/04 02:12:40;;;;;;;1.83;1.23;;;;;;;;;;5081049;28;20911;-72
2021/08/04 02:15:10;;;;;;;2.40;1.30;;;;;;;;;;5079936;28;20500;-72
2021/08/04 02:17:39;;;;;;;2.40;1.30;;;;;;;;;;5079754;28;20849;-72
2021/08/04 02:20:09;;;;;;;3.00;1.30;;;;;;;;;;5079713;28;20868;-72
2021/08/04 02:22:41;;;;;;;2.10;1.40;;;;;;;;;;5079409;28;20487;-72
2021/08/04 02:25:12;;;;;;;3.20;1.57;;;;;;;;;;5079850;28;20505;-72
2021/08/04 02:27:40;;;;;;;2.03;1.20;;;;;;;;;;5079608;28;20930;-72
2021/08/04 02:30:10;;;;;;;7.87;1.10;;;;;;;;;;5079493;28;20937;-72
2021/08/04 02:32:40;;;;;;;3.90;1.80;;;;;;;;;;5079225;28;20829;-72
2021/08/04 02:35:09;;;;;;;2.53;1.30;;;;;;;;;;5079882;28;20533;-72
2021/08/04 02:37:37;;;;;;;4.23;1.50;;;;;;;;;;5079711;28;20440;-71
2021/08/04 02:40:05;;;;;;;2.70;1.40;;;;;;;;;;5079908;28;20517;-72
2021/08/04 02:42:34;;;;;;;2.60;1.40;;;;;;;;;;5079436;28;20492;-72
2021/08/04 02:45:02;;;;;;;2.23;1.00;;;;;;;;;;5079156;28;20499;-72
2021/08/04 02:47:30;;;;;;;6.50;1.33;;;;;;;;;;5078998;28;20484;-72
2021/08/04 02:50:00;;;;;;;2.87;1.43;;;;;;;;;;5079473;28;20457;-72
2021/08/04 02:52:28;;;;;;;2.20;1.17;;;;;;;;;;5079313;28;20551;-72
2021/08/04 02:54:56;;;;;;;1.80;1.00;;;;;;;;;;5078949;28;20929;-72
2021/08/04 02:57:24;;;;;;;2.20;1.30;;;;;;;;;;5078992;28;20502;-72
2021/08/04 02:59:51;;;;;;;3.60;1.10;;;;;;;;;;5079041;28;20467;-72
2021/08/04 03:02:19;;;;;;;2.10;1.07;;;;;;;;;;5079009;28;20484;-72
2021/08/04 03:04:47;;;;;;;2.70;1.00;;;;;;;;;;5078730;28;20956;-72
2021/08/04 03:07:16;;;;;;;3.13;1.20;;;;;;;;;;5079156;28;20452;-73
2021/08/04 03:09:44;;;;;;;2.83;1.30;;;;;;;;;;5078480;28;20748;-73
2021/08/04 03:12:12;;;;;;;5.30;1.80;;;;;;;;;;5078519;28;20448;-72
2021/08/04 03:14:41;;;;;;;2.20;1.07;;;;;;;;;;5077595;28;20809;-72
2021/08/04 03:17:09;;;;;;;2.00;1.13;;;;;;;;;;5078630;28;20448;-72
2021/08/04 03:19:36;;;;;;;3.90;1.50;;;;;;;;;;5078510;28;20465;-72
2021/08/04 03:22:04;;;;;;;3.03;1.50;;;;;;;;;;5078364;28;20524;-72
2021/08/04 03:24:34;;;;;;;3.10;1.43;;;;;;;;;;5077682;28;20461;-72
2021/08/04 03:27:01;;;;;;;2.60;1.53;;;;;;;;;;5077911;28;20494;-72
2021/08/04 03:29:30;;;;;;;3.20;1.57;;;;;;;;;;5078411;28;20461;-73
2021/08/04 03:31:58;;;;;;;3.37;1.10;;;;;;;;;;5078207;28;20915;-71
2021/08/04 03:34:26;;;;;;;2.73;1.67;;;;;;;;;;5078082;28;20457;-72
2021/08/04 03:36:54;;;;;;;3.57;1.33;;;;;;;;;;5078063;28;20521;-72
2021/08/04 03:39:22;;;;;;;1.80;1.10;;;;;;;;;;5077510;28;20483;-72
2021/08/04 03:41:51;;;;;;;3.67;1.53;;;;;;;;;;5078126;28;20869;-71
2021/08/04 03:44:19;;;;;;;4.40;1.40;;;;;;;;;;5078077;28;20456;-72
2021/08/04 03:47:12;;;;;;;4.33;1.57;;;;;;;;;;5077685;28;20455;-72
2021/08/04 03:49:39;;;;;;;2.50;1.33;;;;;;;;;;5078058;28;20456;-72
2021/08/04 03:52:08;;;;;;;2.77;1.53;;;;;;;;;;5078114;28;20692;-72
2021/08/04 03:54:35;;;;;;;2.23;1.60;;;;;;;;;;5077984;28;20530;-72
2021/08/04 03:57:05;;;;;;;2.60;1.10;;;;;;;;;;5077731;28;20488;-72
2021/08/04 03:59:33;;;;;;;3.50;1.20;;;;;;;;;;5077690;28;20533;-71
2021/08/04 04:02:00;;;;;;;2.27;1.60;;;;;;;;;;5077539;28;20449;-72
2021/08/04 04:04:28;;;;;;;4.20;1.90;;;;;;;;;;5077553;28;20499;-72
2021/08/04 04:06:56;;;;;;;5.47;1.57;;;;;;;;;;5077420;28;20448;-72
2021/08/04 04:09:24;;;;;;;2.80;1.60;;;;;;;;;;5069169;28;20518;-72
2021/08/04 04:11:52;;;;;;;2.53;1.53;;;;;;;;;;5077410;28;20444;-72
2021/08/04 04:14:21;;;;;;;2.37;1.30;;;;;;;;;;5077301;28;20469;-71
2021/08/04 04:16:49;;;;;;;3.27;1.73;;;;;;;;;;5076341;28;20479;-72
2021/08/04 04:19:17;;;;;;;2.30;1.20;;;;;;;;;;5056752;28;20465;-72
2021/08/04 04:21:47;;;;;;;3.10;1.50;;;;;;;;;;5057489;28;20460;-72
2021/08/04 04:24:14;;;;;;;2.50;1.40;;;;;;;;;;5056885;28;20527;-72
2021/08/04 04:26:42;;;;;;;2.57;1.40;;;;;;;;;;5056628;28;20511;-72
2021/08/04 04:29:10;;;;;;;4.27;1.87;;;;;;;;;;5057022;28;20881;-72
2021/08/04 04:31:40;;;;;;;2.23;1.37;;;;;;;;;;5057070;28;20460;-72
2021/08/04 04:34:07;;;;;;;4.50;1.67;;;;;;;;;;5065249;28;20543;-72
2021/08/04 04:36:35;;;;;;;2.77;1.50;;;;;;;;;;5076830;28;20748;-72
2021/08/04 04:39:03;;;;;;;2.67;1.80;;;;;;;;;;5076110;28;20538;-72
2021/08/04 04:41:31;;;;;;;4.17;2.20;;;;;;;;;;5076804;28;20453;-72
2021/08/04 04:43:59;;;;;;;4.50;1.90;;;;;;;;;;5076126;28;20492;-72
2021/08/04 04:46:27;;;;;;;3.30;1.67;;;;;;;;;;5075957;28;20492;-72
2021/08/04 04:48:56;;;;;;;4.37;2.03;;;;;;;;;;5076104;28;20464;-72
2021/08/04 04:51:24;;;;;;;3.50;1.70;;;;;;;;;;5067888;28;20887;-72
2021/08/04 04:53:52;;;;;;;4.40;1.70;;;;;;;;;;5076209;28;20511;-72
2021/08/04 04:56:20;;;;;;;3.67;1.80;;;;;;;;;;5075612;28;20444;-71
2021/08/04 04:58:48;;;;;;;4.37;2.30;;;;;;;;;;5075756;28;20464;-72
2021/08/04 05:01:16;;;;;;;3.83;1.80;;;;;;;;;;5076306;28;20533;-73
2021/08/04 05:03:43;;;;;;;5.03;1.67;;;;;;;;;;5076323;28;20545;-72
2021/08/04 05:06:13;;;;;;;3.30;1.63;;;;;;;;;;5061397;28;20465;-73
2021/08/04 05:08:41;;;;;;;3.10;1.57;;;;;;;;;;5055792;28;20460;-72
2021/08/04 05:11:09;;;;;;;2.33;1.40;;;;;;;;;;5055831;28;20501;-72
2021/08/04 05:13:38;;;;;;;9.33;3.20;;;;;;;;;;5059671;28;20477;-72
2021/08/04 05:16:07;;;;;;;5.47;1.33;;;;;;;;;;5076109;28;20899;-72
2021/08/04 05:18:34;;;;;;;4.10;2.23;;;;;;;;;;5076117;28;20452;-72
2021/08/04 05:21:02;;;;;;;2.30;1.20;;;;;;;;;;5075065;28;20456;-72
2021/08/04 05:23:31;;;;;;;2.50;1.40;;;;;;;;;;5076144;28;20488;-71
2021/08/04 05:25:59;;;;;;;2.50;1.50;;;;;;;;;;5076198;28;20526;-71
2021/08/04 05:28:27;;;;;;;2.70;1.50;;;;;;;;;;5075212;28;20480;-72
2021/08/04 05:30:55;;;;;;;2.40;1.73;;;;;;;;;;5075262;28;20540;-72
2021/08/04 05:33:22;;;;;;;3.73;1.80;;;;;;;;;;5075137;28;20456;-72
2021/08/04 05:35:50;;;;;;;3.43;1.33;;;;;;;;;;5075179;28;20484;-72
2021/08/04 05:38:18;;;;;;;3.90;1.60;;;;;;;;;;5076614;28;20433;-72
2021/08/04 05:40:48;;;;;;;4.17;1.53;;;;;;;;;;5079883;28;20467;-72
2021/08/04 05:43:15;;;;;;;3.23;1.40;;;;;;;;;;5079328;28;20568;-72
2021/08/04 05:45:47;;;;;;;3.27;1.53;;;;;;;;;;5078563;28;20914;-73
2021/08/04 05:48:15;;;;;;;3.30;1.60;;;;;;;;;;5078451;28;20472;-72
2021/08/04 05:50:43;;;;;;;5.10;1.20;;;;;;;;;;5078309;28;20530;-72
2021/08/04 05:53:11;;;;;;;2.60;2.07;;;;;;;;;;5079039;28;20445;-72
2021/08/04 05:55:43;;;;;;;3.00;1.93;;;;;;;;;;5078529;28;20460;-72
2021/08/04 05:58:13;;;;;;;2.77;1.30;;;;;;;;;;5077703;28;20460;-72
2021/08/04 06:00:41;;;;;;;4.13;1.60;;;;;;;;;;5076820;28;20751;-71
2021/08/04 06:03:09;;;;;;;4.90;1.70;;;;;;;;;;5078403;28;20732;-72
2021/08/04 06:05:37;;;;;;;3.10;1.70;;;;;;;;;;5077989;28;20483;-71
2021/08/04 06:08:05;;;;;;;3.50;1.50;;;;;;;;;;5086137;28;20490;-71
2021/08/04 06:10:33;;;;;;;4.47;1.63;;;;;;;;;;5078372;28;20436;-71
2021/08/04 06:13:01;;;;;;;3.20;1.67;;;;;;;;;;5078836;28;20452;-72
2021/08/04 06:15:30;;;;;;;1.60;1.10;;;;;;;;;;5078591;28;20476;-71
2021/08/04 06:17:58;;;;;;;1.87;1.50;;;;;;;;;;5077957;28;20462;-71
2021/08/04 06:20:26;;;;;;;4.10;1.40;;;;;;;;;;5077090;28;20448;-71
2021/08/04 06:22:56;;;;;;;6.03;3.20;;;;;;;;;;5074164;28;20480;-70
2021/08/04 06:25:25;;;;;;;3.83;2.33;;;;;;;;;;5078407;28;20471;-70
2021/08/04 06:27:54;;;;;;;2.63;1.30;;;;;;;;;;5077234;28;20563;-71
2021/08/04 06:30:23;;;;;;;2.70;1.30;;;;;;;;;;5073704;28;20540;-72
2021/08/04 06:32:52;;;;;;;5.50;1.53;;;;;;;;;;5077223;28;20456;-72
2021/08/04 06:35:23;;;;;;;2.27;1.23;;;;;;;;;;5076418;28;20472;-72
2021/08/04 06:37:52;;;;;;;2.97;1.17;;;;;;;;;;5078809;28;20551;-70
2021/08/04 06:40:20;;;;;;;3.10;1.57;;;;;;;;;;5088172;28;20453;-70
2021/08/04 06:42:50;;;;;;;2.40;1.10;;;;;;;;;;5074126;28;20555;-73
2021/08/04 06:45:21;;;;;;;5.60;1.40;;;;;;;;;;5076426;28;20461;-73
2021/08/04 06:47:49;;;;;;;2.17;1.10;;;;;;;;;;5076193;28;20453;-72
2021/08/04 06:50:18;;;;;;;3.00;1.23;;;;;;;;;;5077518;28;20479;-72
2021/08/04 06:52:49;;;;;;;2.97;1.70;;;;;;;;;;5076303;28;20769;-73
2021/08/04 06:55:19;;;;;;;3.63;2.20;;;;;;;;;;5076401;28;20452;-72
2021/08/04 06:57:50;;;;;;;3.83;2.10;;;;;;;;;;5076414;28;20476;-72
2021/08/04 07:00:18;;;;;;;2.80;1.20;;;;;;;;;;5077911;28;20456;-72
2021/08/04 07:02:49;;;;;;;6.40;1.77;;;;;;;;;;5077344;28;20924;-72
2021/08/04 07:05:20;;;;;;;3.83;1.90;;;;;;;;;;5078217;28;20464;-72
2021/08/04 07:07:50;;;;;;;3.93;1.70;;;;;;;;;;5085698;28;20906;-71
2021/08/04 07:10:20;;;;;;;3.93;1.70;;;;;;;;;;5097127;28;20516;-71
2021/08/04 07:12:48;;;;;;;4.83;1.50;;;;;;;;;;5077728;28;20703;-72
2021/08/04 07:15:16;;;;;;;2.37;1.30;;;;;;;;;;5075724;28;20544;-72
2021/08/04 07:17:48;;;;;;;2.47;1.50;;;;;;;;;;5077078;28;20488;-72
2021/08/04 07:20:17;;;;;;;4.80;2.20;;;;;;;;;;5075463;28;20719;-72
2021/08/04 07:22:46;;;;;;;4.37;1.80;;;;;;;;;;5076473;28;20455;-72
2021/08/04 07:25:15;;;;;;;2.23;1.20;;;;;;;;;;5075835;28;21230;-72
2021/08/04 07:27:43;;;;;;;3.57;1.80;;;;;;;;;;5076900;28;20462;-73
2021/08/04 07:30:12;;;;;;;3.70;1.90;;;;;;;;;;5076416;28;20555;-72
2021/08/04 07:32:41;;;;;;;2.90;1.70;;;;;;;;;;5077241;28;20910;-73
2021/08/04 07:35:09;;;;;;;11.80;2.30;;;;;;;;;;5076635;28;20452;-73
2021/08/04 07:37:38;;;;;;;2.63;1.27;;;;;;;;;;5076579;28;20726;-73
2021/08/04 07:40:09;;;;;;;4.07;1.67;;;;;;;;;;5075695;28;20736;-73
2021/08/04 07:42:37;;;;;;;4.13;1.50;;;;;;;;;;5077412;28;20448;-72
2021/08/04 07:45:06;;;;;;;3.17;1.47;;;;;;;;;;5076711;28;20536;-72
2021/08/04 07:47:35;;;;;;;6.47;2.17;;;;;;;;;;5076073;28;20456;-72
2021/08/04 07:50:03;;;;;;;2.40;1.33;;;;;;;;;;5075938;28;20448;-72
2021/08/04 07:52:31;;;;;;;3.30;1.50;;;;;;;;;;5074891;28;20564;-73
2021/08/04 07:55:03;;;;;;;3.60;1.40;;;;;;;;;;5075227;28;20477;-72
2021/08/04 07:57:32;;;;;;;2.50;1.50;;;;;;;;;;5076090;28;20467;-72
2021/08/04 08:00:00;;;;;;;1.77;1.17;;;;;;;;;;5076406;28;20449;-72
2021/08/04 08:02:28;;;;;;;3.50;1.67;;;;;;;;;;5075605;28;20544;-72
2021/08/04 08:04:58;;;;;;;4.13;2.43;;;;;;;;;;5075352;28;20480;-72
2021/08/04 08:07:26;;;;;;;1.87;1.23;;;;;;;;;;5075723;28;20460;-72
2021/08/04 08:10:03;;;;;;;2.80;1.67;;;;;;;;;;5076360;28;20509;-72
2021/08/04 08:12:35;;;;;;;5.63;2.67;;;;;;;;;;5075527;28;20468;-72
2021/08/04 08:15:02;;;;;;;3.70;1.67;;;;;;;;;;5074922;28;20835;-73
2021/08/04 08:17:31;;;;;;;4.57;1.70;;;;;;;;;;5075615;28;20449;-73
2021/08/04 08:19:59;;;;;;;2.90;1.20;;;;;;;;;;5074502;28;20479;-73
2021/08/04 08:22:27;;;;;;;4.60;1.30;;;;;;;;;;5075301;28;20457;-71
2021/08/04 08:24:56;;;;;;;2.77;1.60;;;;;;;;;;5075139;28;20476;-71
2021/08/04 08:27:25;;;;;;;1.80;1.10;;;;;;;;;;5075804;28;20543;-70
2021/08/04 08:29:54;;;;;;;2.77;1.53;;;;;;;;;;5075223;28;20452;-72
2021/08/04 08:32:26;;;;;;;2.73;1.50;;;;;;;;;;5074725;28;20453;-72
2021/08/04 08:34:54;;;;;;;4.40;2.00;;;;;;;;;;5075543;28;20449;-72
2021/08/04 08:37:21;;;;;;;2.30;1.40;;;;;;;;;;5075994;28;21060;-73
2021/08/04 08:39:50;;;;;;;2.37;1.63;;;;;;;;;;5074130;28;20530;-73
2021/08/04 08:42:20;;;;;;;2.33;1.30;;;;;;;;;;5074935;28;20738;-72
2021/08/04 08:44:48;;;;;;;3.00;1.40;;;;;;;;;;5075364;28;20495;-72
2021/08/04 08:47:21;;;;;;;4.00;1.40;;;;;;;;;;5075213;28;20506;-72
2021/08/04 08:49:50;;;;;;;2.50;1.47;;;;;;;;;;5077077;28;20502;-72
2021/08/04 08:52:17;;;;;;;2.17;1.20;;;;;;;;;;5076651;28;20456;-72
2021/08/04 08:54:46;;;;;;;2.60;1.30;;;;;;;;;;5075862;28;20449;-72
2021/08/04 08:57:13;;;;;;;2.50;1.40;;;;;;;;;;5075059;28;20457;-72
2021/08/04 08:59:41;;;;;;;2.57;1.50;;;;;;;;;;5075640;28;20452;-72
2021/08/04 09:02:13;;;;;;;3.83;1.97;;;;;;;;;;5075350;28;20527;-72
2021/08/04 09:04:57;;;;;;;2.70;1.53;;;;;;;;;;5074176;28;20511;-72
2021/08/04 09:07:34;;;;;;;2.43;1.60;;;;;;;;;;5066381;28;20456;-72
2021/08/04 09:10:07;;;;;;;2.30;1.40;;;;;;;;;;5076242;28;20444;-74
2021/08/04 09:12:40;;;;;;;2.80;1.63;;;;;;;;;;5076802;28;20449;-73
2021/08/04 09:15:23;;;;;;;1.87;1.00;;;;;;;;;;5075400;28;20476;-73
2021/08/04 09:17:58;;;;;;;2.53;1.60;;;;;;;;;;5083888;28;20467;-74
2021/08/04 09:20:28;;;;;;;2.03;1.10;;;;;;;;;;5072056;28;20459;-73
2021/08/04 09:23:00;;;;;;;2.70;1.53;;;;;;;;;;5075353;28;20502;-73
2021/08/04 09:25:28;;;;;;;3.50;1.47;;;;;;;;;;5074166;28;20480;-72
2021/08/04 09:27:58;;;;;;;1.80;1.20;;;;;;;;;;5072786;28;20467;-71
2021/08/04 09:30:30;;;;;;;2.30;1.70;;;;;;;;;;5074512;28;20457;-73
2021/08/04 09:33:12;;;;;;;2.87;1.57;;;;;;;;;;5075333;28;20505;-73
2021/08/04 09:35:46;;;;;;;2.10;1.13;;;;;;;;;;5074339;28;20888;-72
2021/08/04 09:38:15;;;;;;;1.97;1.30;;;;;;;;;;5074879;28;20444;-71
2021/08/04 09:40:43;;;;;;;4.53;1.60;;;;;;;;;;5075062;28;20465;-72
2021/08/04 09:43:23;;;;;;;2.63;1.40;;;;;;;;;;5074460;28;21094;-72
2021/08/04 09:45:52;;;;;;;3.10;1.63;;;;;;;;;;5074286;28;20496;-71
2021/08/04 09:48:26;;;;;;;3.80;1.70;;;;;;;;;;5073401;28;20450;-73
2021/08/04 09:50:56;;;;;;;2.83;1.67;;;;;;;;;;5072720;28;20536;-73
2021/08/04 09:53:28;;;;;;;1.80;1.30;;;;;;;;;;5073872;28;20437;-73
2021/08/04 09:56:15;;;;;;;5.37;1.37;;;;;;;;;;5072515;28;20449;-73
2021/08/04 09:58:47;;;;;;;4.40;1.80;;;;;;;;;;5073354;28;20452;-73
2021/08/04 10:01:25;;;;;;;3.87;2.03;;;;;;;;;;5072801;28;20456;-72
2021/08/04 10:04:01;;;;;;;2.67;1.33;;;;;;;;;;5065136;28;20449;-74
2021/08/04 10:06:35;;;;;;;2.00;1.20;;;;;;;;;;5073519;28;20504;-73
2021/08/04 10:09:09;;;;;;;2.47;1.40;;;;;;;;;;5073918;28;20443;-73
2021/08/04 10:11:43;;;;;;;5.07;1.50;;;;;;;;;;5073752;28;20498;-73
2021/08/04 10:14:16;;;;;;;2.30;1.50;;;;;;;;;;5073199;28;20495;-73
2021/08/04 10:16:45;;;;;;;3.40;1.70;;;;;;;;;;5072283;28;20460;-73
2021/08/04 10:19:23;;;;;;;8.60;4.87;;;;;;;;;;5073296;28;20468;-74
2021/08/04 10:21:58;;;;;;;2.43;1.73;;;;;;;;;;5073748;28;20475;-72
2021/08/04 10:24:26;;;;;;;1.70;1.10;;;;;;;;;;5072009;28;20510;-73
2021/08/04 10:26:59;;;;;;;3.83;1.80;;;;;;;;;;5078522;28;20460;-73
2021/08/04 10:29:29;;;;;;;2.50;1.40;;;;;;;;;;5078044;28;20467;-73
2021/08/04 10:31:57;;;;;;;2.63;1.40;;;;;;;;;;5076916;28;20562;-74
2021/08/04 10:34:28;;;;;;;4.30;1.50;;;;;;;;;;5078324;28;20494;-73
2021/08/04 10:36:59;;;;;;;1.90;1.30;;;;;;;;;;5077884;28;20559;-74
2021/08/04 10:39:28;;;;;;;2.30;1.30;;;;;;;;;;5068405;28;20458;-73
2021/08/04 10:42:04;;;;;;;4.47;2.27;;;;;;;;;;5078747;28;20456;-72
2021/08/04 10:44:35;;;;;;;6.37;1.73;;;;;;;;;;5076868;28;20579;-74
2021/08/04 10:47:04;;;;;;;4.10;1.90;;;;;;;;;;5076886;28;20800;-73
2021/08/04 10:49:34;;;;;;;3.53;1.63;;;;;;;;;;5077253;28;20529;-73
2021/08/04 10:52:17;;;;;;;3.73;2.20;;;;;;;;;;5077201;28;20484;-73
2021/08/04 10:55:05;;;;;;;3.23;2.40;;;;;;;;;;5077571;28;20892;-73
2021/08/04 10:57:36;;;;;;;2.83;1.80;;;;;;;;;;5081423;28;20444;-74
2021/08/04 11:00:22;;;;;;;3.10;1.87;;;;;;;;;;5078747;28;20498;-73
2021/08/04 11:02:51;;;;;;;4.57;1.63;;;;;;;;;;5077908;28;20853;-73
2021/08/04 11:05:22;;;;;;;4.40;1.93;;;;;;;;;;5076416;28;20579;-74
2021/08/04 11:08:09;;;;;;;4.33;1.63;;;;;;;;;;5077927;28;20533;-73
2021/08/04 11:10:43;;;;;;;5.73;2.20;;;;;;;;;;5077780;28;20486;-72
2021/08/04 11:13:15;;;;;;;7.00;2.27;;;;;;;;;;5061283;28;20456;-74
2021/08/04 11:15:49;;;;;;;3.03;1.70;;;;;;;;;;5057707;28;20457;-76
2021/08/04 11:18:22;;;;;;;2.40;1.57;;;;;;;;;;5058255;28;20741;-74
2021/08/04 11:21:08;;;;;;;2.50;1.43;;;;;;;;;;5069002;28;20916;-72
2021/08/04 11:23:48;;;;;;;4.20;1.93;;;;;;;;;;5078480;28;20495;-74
2021/08/04 11:26:31;;;;;;;4.50;1.30;;;;;;;;;;5078214;28;20488;-73
2021/08/04 11:28:59;;;;;;;2.70;1.90;;;;;;;;;;5059106;28;20535;-74
2021/08/04 11:31:27;;;;;;;4.50;2.70;;;;;;;;;;5059201;28;20488;-74
2021/08/04 11:34:01;;;;;;;2.60;1.70;;;;;;;;;;5075297;28;20457;-74
2021/08/04 11:36:30;;;;;;;4.27;2.00;;;;;;;;;;5076382;28;20526;-74
2021/08/04 11:39:06;;;;;;;2.57;1.73;;;;;;;;;;5076346;28;20457;-74
2021/08/04 11:41:49;;;;;;;7.63;2.57;;;;;;;;;;5077791;28;20876;-75
2021/08/04 11:44:43;;;;;;;2.57;1.70;;;;;;;;;;5078600;28;20860;-74
2021/08/04 11:47:12;;;;;;;3.10;2.27;;;;;;;;;;5072783;28;20468;-74
2021/08/04 11:49:41;;;;;;;4.70;1.60;;;;;;;;;;5077489;28;20460;-75
2021/08/04 11:52:32;;;;;;;6.30;3.03;;;;;;;;;;5081681;28;20456;-75
2021/08/04 11:55:05;;;;;;;3.93;2.70;;;;;;;;;;5076989;28;20479;-74
2021/08/04 11:57:35;;;;;;;6.80;5.80;;;;;;;;;;5076213;28;20511;-73
2021/08/04 12:00:06;;;;;;;6.60;1.90;;;;;;;;;;5076205;28;20454;-72
2021/08/04 12:02:35;;;;;;;4.10;2.30;;;;;;;;;;5075311;28;20925;-72
2021/08/04 12:05:05;;;;;;;4.53;2.17;;;;;;;;;;5074541;28;20545;-72
2021/08/04 12:07:34;;;;;;;4.37;2.67;;;;;;;;;;5075605;28;20699;-72
2021/08/04 12:10:05;;;;;;;3.43;2.60;;;;;;;;;;5075253;28;20445;-72
2021/08/04 12:12:37;;;;;;;3.67;2.10;;;;;;;;;;5073744;28;20900;-72
2021/08/04 12:15:06;;;;;;;2.33;1.80;;;;;;;;;;5075773;28;20472;-72
2021/08/04 12:17:37;;;;;;;2.70;1.83;;;;;;;;;;5075065;28;20490;-73
2021/08/04 12:20:15;;;;;;;3.33;1.80;;;;;;;;;;5074392;28;20915;-73
2021/08/04 12:22:44;;;;;;;5.90;2.80;;;;;;;;;;5075160;28;20490;-73
2021/08/04 12:25:19;;;;;;;4.57;2.73;;;;;;;;;;5075254;28;20493;-76
2021/08/04 12:27:54;;;;;;;6.47;3.60;;;;;;;;;;5075036;28;20453;-75
2021/08/04 12:30:27;;;;;;;7.77;3.90;;;;;;;;;;5073609;28;20743;-75
2021/08/04 12:32:57;;;;;;;8.47;3.30;;;;;;;;;;5075044;28;20527;-74
2021/08/04 12:35:26;;;;;;;4.10;2.73;;;;;;;;;;5066613;28;20455;-74
2021/08/04 12:37:55;;;;;;;3.23;2.43;;;;;;;;;;5074459;28;20463;-74
2021/08/04 12:40:25;;;;;;;6.30;4.20;;;;;;;;;;5075783;28;20480;-74
2021/08/04 12:42:56;;;;;;;5.77;3.20;;;;;;;;;;5074957;28;20463;-74
2021/08/04 12:45:31;;;;;;;6.37;2.70;;;;;;;;;;5074452;28;20587;-74
2021/08/04 12:48:03;;;;;;;3.90;2.63;;;;;;;;;;5074071;28;20448;-73
2021/08/04 12:50:34;;;;;;;4.33;2.83;;;;;;;;;;5074804;28;20925;-73
2021/08/04 12:53:03;;;;;;;6.30;2.77;;;;;;;;;;5074383;28;20747;-74
2021/08/04 12:55:32;;;;;;;6.60;2.37;;;;;;;;;;5074218;28;20449;-73
2021/08/04 12:58:11;;;;;;;3.13;2.07;;;;;;;;;;5082153;28;20456;-74
2021/08/04 13:00:41;;;;;;;5.70;2.20;;;;;;;;;;5081382;28;20475;-75
2021/08/04 13:03:09;;;;;;;4.13;2.10;;;;;;;;;;5073660;28;20832;-73
2021/08/04 13:05:47;;;;;;;4.93;2.27;;;;;;;;;;5074208;28;20485;-72
2021/08/04 13:08:31;;;;;;;3.93;2.67;;;;;;;;;;5074907;28;20463;-74
2021/08/04 13:10:59;;;;;;;6.93;2.00;;;;;;;;;;5074570;28;20484;-74
2021/08/04 13:13:28;;;;;;;3.70;1.83;;;;;;;;;;5073997;28;20484;-74
2021/08/04 13:15:56;;;;;;;4.00;2.70;;;;;;;;;;5074845;28;20448;-72
2021/08/04 13:18:40;;;;;;;3.63;2.33;;;;;;;;;;5074212;28;20480;-75
2021/08/04 13:21:15;;;;;;;3.53;2.53;;;;;;;;;;5074513;28;20475;-74
2021/08/04 13:23:43;;;;;;;4.33;2.67;;;;;;;;;;5074737;28;20565;-75
2021/08/04 13:26:13;;;;;;;5.20;2.80;;;;;;;;;;5075106;28;20583;-76
2021/08/04 13:28:44;;;;;;;4.07;2.20;;;;;;;;;;5075543;28;20445;-72
2021/08/04 13:31:17;;;;;;;5.97;2.80;;;;;;;;;;5076693;28;20460;-74
2021/08/04 13:33:47;;;;;;;6.00;2.63;;;;;;;;;;5095615;28;20428;-73
2021/08/04 13:36:21;;;;;;;6.83;2.60;;;;;;;;;;5095017;28;20444;-74
2021/08/04 13:38:49;;;;;;;4.83;2.50;;;;;;;;;;5094786;28;20461;-74
2021/08/04 13:41:23;;;;;;;6.20;2.57;;;;;;;;;;5094422;28;20459;-74
2021/08/04 13:43:55;;;;;;;5.07;2.27;;;;;;;;;;5092998;28;20459;-73
2021/08/04 13:46:26;;;;;;;3.10;2.10;;;;;;;;;;5085275;28;20479;-74
2021/08/04 13:48:58;;;;;;;3.40;2.43;;;;;;;;;;5084464;28;20479;-74
2021/08/04 13:51:29;;;;;;;5.53;2.40;;;;;;;;;;5074752;28;20448;-74
2021/08/04 13:53:57;;;;;;;4.03;2.40;;;;;;;;;;5054249;28;20446;-73
2021/08/04 13:56:26;;;;;;;4.50;2.80;;;;;;;;;;5068722;28;20448;-74
2021/08/04 13:58:55;;;;;;;4.53;2.20;;;;;;;;;;5073692;28;20456;-74
2021/08/04 14:01:23;;;;;;;4.40;2.30;;;;;;;;;;5069318;28;20448;-72
2021/08/04 14:03:52;;;;;;;5.27;2.10;;;;;;;;;;5076363;28;20449;-73
2021/08/04 14:06:20;;;;;;;3.40;2.30;;;;;;;;;;5077898;28;20519;-73
2021/08/04 14:08:48;;;;;;;5.30;1.77;;;;;;;;;;5075688;28;20448;-73
2021/08/04 14:11:16;;;;;;;2.60;1.60;;;;;;;;;;5076262;28;20456;-72
2021/08/04 14:13:44;;;;;;;3.20;1.97;;;;;;;;;;5076563;28;20440;-73
2021/08/04 14:16:24;;;;;;;5.23;2.37;;;;;;;;;;5076561;28;20872;-73
2021/08/04 14:18:53;;;;;;;4.70;2.30;;;;;;;;;;5075401;28;20459;-71
2021/08/04 14:21:21;;;;;;;2.63;1.90;;;;;;;;;;5077104;28;20460;-73
2021/08/04 14:23:49;;;;;;;3.67;1.87;;;;;;;;;;5077436;28;20467;-72
2021/08/04 14:26:20;;;;;;;3.17;2.13;;;;;;;;;;5077184;28;20488;-72
2021/08/04 14:28:48;;;;;;;2.73;1.87;;;;;;;;;;5077392;28;20463;-73
2021/08/04 14:31:17;;;;;;;2.63;1.97;;;;;;;;;;5077474;28;20444;-72
2021/08/04 14:33:48;;;;;;;4.13;3.00;;;;;;;;;;5077328;28;20521;-72
2021/08/04 14:36:18;;;;;;;4.30;2.03;;;;;;;;;;5077237;28;20574;-73
2021/08/04 14:38:48;;;;;;;5.50;2.47;;;;;;;;;;5077481;28;20440;-72
2021/08/04 14:41:17;;;;;;;4.33;2.60;;;;;;;;;;5077701;28;20457;-72
2021/08/04 14:43:48;;;;;;;4.90;2.20;;;;;;;;;;5076378;28;20556;-72
2021/08/04 14:46:20;;;;;;;3.63;1.67;;;;;;;;;;5077244;28;20557;-72
2021/08/04 14:48:48;;;;;;;2.60;1.87;;;;;;;;;;5078124;28;20448;-72
2021/08/04 14:51:16;;;;;;;4.70;2.60;;;;;;;;;;5076754;28;20770;-72
2021/08/04 14:53:44;;;;;;;3.27;2.10;;;;;;;;;;5076421;28;20456;-73
2021/08/04 14:56:16;;;;;;;3.20;1.83;;;;;;;;;;5077149;28;20448;-73
2021/08/04 14:58:44;;;;;;;4.53;2.40;;;;;;;;;;5076748;28;20502;-73
2021/08/04 15:01:21;;;;;;;3.20;1.93;;;;;;;;;;5077412;28;20465;-72